ADDS METAR Data INFO
IDs: Format: Raw Decoded Include TAF

Data at: 0855 UTC 19 Jun 2018

KCAK 190851Z 28005KT 10SM FEW045 SCT130 23/21 A2993 RMK AO2 SLP122 60000 T02330211 58007 $
KCAK 190751Z 26003KT 10SM FEW011 SCT030 BKN045 24/21 A2993 RMK AO2 SLP122 T02390211 $
KCAK 190651Z COR 32004KT 10SM FEW015 BKN039 BKN048 24/22 A2996 RMK AO2 LTG DSNT SW-N SLP132 RAB27E44 P0000 T02440217 $
KCAK 190551Z 01005KT 10SM BKN038 OVC049 25/21 A2995 RMK AO2 LTG DSNT N AND NW SLP129 T02500211 10311 20244 53006 $
KCAK 190451Z 01009KT 10SM SCT036 BKN047 BKN055 26/21 A2995 RMK AO2 LTG DSNT NE SLP129 T02610211 403330228 $
KCAK 190351Z 26007KT 10SM SCT110 28/21 A2993 RMK AO2 SLP121 T02830211 $
KCAK 190251Z 25006KT 10SM FEW070 FEW250 28/21 A2993 RMK AO2 SLP122 T02830211 51003 $
KCAK 190151Z 24005KT 10SM FEW075 SCT250 29/21 A2993 RMK AO2 SLP121 T02890211 $
KCAK 190051Z 25007KT 10SM BKN250 30/21 A2993 RMK AO2 SLP122 T03000211 $
KCAK 182351Z 24009KT 10SM BKN250 31/22 A2992 RMK AO2 SLP120 T03110217 10333 20306 56014 $
KCAK 182251Z 23008KT 10SM FEW050 BKN250 31/22 A2993 RMK AO2 SLP125 T03110222 $
KCAK 182151Z 24009KT 10SM FEW050 BKN250 31/21 A2995 RMK AO2 SLP129 T03110211 $
KCAK 182051Z 23015G20KT 10SM FEW050 BKN250 33/21 A2996 RMK AO2 SLP134 T03280211 56019 $
KCAK 181951Z 26011KT 10SM FEW055 BKN250 33/21 A2998 RMK AO2 SLP139 T03280206 $
KCAK 181851Z 24013G21KT 10SM SCT050 BKN070 33/20 A3000 RMK AO2 SLP145 T03330200 $
KCAK 181751Z 25014G22KT 10SM FEW040 BKN055 33/19 A3002 RMK AO2 SLP153 T03330194 10333 20244 58016 $
KCAK 181651Z 28010KT 10SM SCT038 BKN055 32/22 A3005 RMK AO2 SLP163 T03220222 $
KCAK 181551Z 27010G17KT 10SM SCT035 SCT250 32/22 A3006 RMK AO2 SLP166 T03170222 $
KCAK 181451Z 25011G18KT 10SM FEW045 BKN250 31/22 A3007 RMK AO2 SLP170 T03060217 55000 $
KCAK 181351Z 23008KT 10SM BKN250 29/22 A3006 RMK AO2 SLP168 T02890222 $
KCAK 181251Z 24007KT 7SM BKN250 27/22 A3007 RMK AO2 SLP170 T02670217 $
KCAK 181151Z 23006KT 6SM HZ FEW100 BKN250 24/21 A3007 RMK AO2 SLP171 T02440206 10244 20228 50002 $
KCAK 181051Z 23005KT 6SM HZ FEW100 BKN250 23/20 A3007 RMK AO2 SLP173 T02280200 $
KCAK 180951Z 23005KT 7SM BKN250 23/20 A3007 RMK AO2 SLP169 T02280200 $
KCAK 180851Z 20007KT 8SM BKN250 23/20 A3006 RMK AO2 SLP168 T02280200 58007 $
KCAK 180751Z 21005KT 9SM BKN250 23/20 A3007 RMK AO2 SLP170 T02280200 $
KCAK 180651Z 20005KT 9SM SCT250 23/21 A3008 RMK AO2 SLP173 T02330206 $
KCAK 180551Z 23004KT 9SM SCT250 24/21 A3008 RMK AO2 SLP176 T02390211 10306 20239 51004 $
KCAK 180451Z 21005KT 9SM SCT250 24/21 A3008 RMK AO2 SLP175 T02440211 403440189 $
KCAK 180351Z 23005KT 10SM SCT250 26/21 A3008 RMK AO2 SLP173 T02560211 $
KCAK 180251Z 22005KT 10SM FEW250 26/22 A3007 RMK AO2 SLP172 T02610217 53007 $
KCAK 180151Z 23007KT 7SM FEW050 FEW250 28/22 A3006 RMK AO2 SLP168 T02780222 $
KCAK 180051Z 23007KT 10SM FEW055 FEW250 29/22 A3005 RMK AO2 SLP164 T02890217 $
KCAK 172351Z 23006KT 10SM FEW055 31/22 A3005 RMK AO2 SLP165 T03060222 10344 20306 56007 $
KCAK 172251Z 23006KT 10SM FEW055 32/21 A3005 RMK AO2 SLP167 T03220211 $
KCAK 172151Z 24003KT 10SM FEW045 33/21 A3007 RMK AO2 SLP170 T03330206 $